createdAt,value
2023-07-24T00:02:55.006Z,0.52
2023-07-24T00:06:04.431Z,0.47
2023-07-24T00:09:07.143Z,0.82
2023-07-24T00:12:12.213Z,1.00
2023-07-24T00:15:14.988Z,1.02
2023-07-24T00:18:17.373Z,0.55
2023-07-24T00:21:20.575Z,0.47
2023-07-24T00:24:23.236Z,0.68
2023-07-24T00:27:25.936Z,0.80
2023-07-24T00:30:28.692Z,0.45
2023-07-24T00:33:31.114Z,1.00
2023-07-24T00:36:33.543Z,0.77
2023-07-24T00:39:35.962Z,1.20
2023-07-24T00:42:39.107Z,0.90
2023-07-24T00:45:41.668Z,0.98
2023-07-24T00:48:47.129Z,0.67
2023-07-24T00:51:49.881Z,0.60
2023-07-24T00:54:52.551Z,0.45
2023-07-24T00:57:55.215Z,0.70
2023-07-24T01:00:58.003Z,0.50
2023-07-24T01:04:04.387Z,0.73
2023-07-24T01:07:08.729Z,0.93
2023-07-24T01:10:11.204Z,0.57
2023-07-24T01:13:24.708Z,0.47
2023-07-24T01:16:38.911Z,1.05
2023-07-24T01:19:49.906Z,0.93
2023-07-24T01:23:29.796Z,0.50
2023-07-24T01:26:32.971Z,0.60
2023-07-24T01:29:35.477Z,0.65
2023-07-24T01:32:38.893Z,0.98
2023-07-24T01:35:44.717Z,0.80
2023-07-24T01:38:51.997Z,1.00
2023-07-24T01:41:54.886Z,0.60
2023-07-24T01:44:57.501Z,0.70
2023-07-24T01:48:04.314Z,1.17
2023-07-24T01:51:07.016Z,0.85
2023-07-24T01:54:09.586Z,0.80
2023-07-24T01:57:12.130Z,0.68
2023-07-24T02:00:15.010Z,1.10
2023-07-24T02:03:18.476Z,0.50
2023-07-24T02:06:21.159Z,0.65
2023-07-24T02:09:23.800Z,0.60
2023-07-24T02:12:26.290Z,0.95
2023-07-24T02:15:28.757Z,0.93
2023-07-24T02:18:31.217Z,0.70
2023-07-24T02:21:34.067Z,0.60
2023-07-24T02:24:36.630Z,0.90
2023-07-24T02:27:39.125Z,0.60
2023-07-24T02:30:41.576Z,0.80
2023-07-24T02:33:44.371Z,1.38
2023-07-24T02:36:47.297Z,0.75
2023-07-24T02:39:50.142Z,1.40
2023-07-24T02:42:52.561Z,1.35
2023-07-24T02:45:55.102Z,0.75
2023-07-24T02:49:00.228Z,0.80
2023-07-24T02:52:03.070Z,0.98
2023-07-24T02:55:06.043Z,1.27
2023-07-24T02:58:08.661Z,0.77
2023-07-24T03:01:15.472Z,1.15
2023-07-24T03:04:17.953Z,0.70
2023-07-24T03:07:20.821Z,0.83
2023-07-24T03:10:26.741Z,1.20
2023-07-24T03:13:29.642Z,1.02
2023-07-24T03:16:32.227Z,0.70
2023-07-24T03:19:34.993Z,1.02
2023-07-24T03:22:37.796Z,0.80
2023-07-24T03:25:46.778Z,1.27
2023-07-24T03:28:49.235Z,0.80
2023-07-24T03:31:51.698Z,0.60
2023-07-24T03:34:54.789Z,0.70
2023-07-24T03:37:57.940Z,0.70
2023-07-24T03:41:02.237Z,0.80
2023-07-24T03:44:06.336Z,1.65
2023-07-24T03:47:09.073Z,1.42
2023-07-24T03:50:12.141Z,1.73
2023-07-24T03:53:15.949Z,0.85
2023-07-24T03:56:19.010Z,0.70
2023-07-24T03:59:24.790Z,0.70
2023-07-24T04:02:27.228Z,0.75
2023-07-24T04:05:31.648Z,0.93
2023-07-24T04:08:35.031Z,0.90
2023-07-24T04:11:39.444Z,0.67
2023-07-24T04:14:42.018Z,0.50
2023-07-24T04:17:45.104Z,0.98
2023-07-24T04:20:47.700Z,0.73
2023-07-24T04:23:50.140Z,0.97
2023-07-24T04:26:52.600Z,0.97
2023-07-24T04:29:55.047Z,0.50
2023-07-24T04:32:57.606Z,0.68
2023-07-24T04:36:00.119Z,0.60
2023-07-24T04:39:02.626Z,1.07
2023-07-24T04:42:05.645Z,0.70
2023-07-24T04:45:08.794Z,1.00
2023-07-24T04:48:11.250Z,0.70
2023-07-24T04:51:14.045Z,0.70
2023-07-24T04:54:16.592Z,1.38
2023-07-24T04:57:19.143Z,1.17
2023-07-24T05:00:21.593Z,1.10
2023-07-24T05:03:24.121Z,1.10
2023-07-24T05:06:27.981Z,0.75
2023-07-24T05:09:30.840Z,0.50
2023-07-24T05:12:33.288Z,1.90
2023-07-24T05:15:36.114Z,1.48
2023-07-24T05:18:40.811Z,1.30
2023-07-24T05:21:44.114Z,0.98
2023-07-24T05:24:46.925Z,0.65
2023-07-24T05:27:49.583Z,1.30
2023-07-24T05:30:52.096Z,1.35
2023-07-24T05:33:54.618Z,1.00
2023-07-24T05:36:57.062Z,0.90
2023-07-24T05:39:59.729Z,1.38
2023-07-24T05:43:02.360Z,1.20
2023-07-24T05:46:05.327Z,0.75
2023-07-24T05:49:09.001Z,1.20
2023-07-24T05:52:11.620Z,1.88
2023-07-24T05:55:14.330Z,2.13
2023-07-24T05:58:16.954Z,2.03
2023-07-24T06:01:19.483Z,1.60
2023-07-24T06:04:22.202Z,1.05
2023-07-24T06:07:24.729Z,1.85
2023-07-24T06:10:27.370Z,1.40
2023-07-24T06:13:30.419Z,0.97
2023-07-24T06:16:33.509Z,1.75
2023-07-24T06:19:36.104Z,1.38
2023-07-24T06:22:38.959Z,1.50
2023-07-24T06:25:41.378Z,1.15
2023-07-24T06:28:44.334Z,1.63
2023-07-24T06:31:46.862Z,1.15
2023-07-24T06:34:49.332Z,1.10
2023-07-24T06:37:51.836Z,1.20
2023-07-24T06:40:54.515Z,1.63
2023-07-24T06:43:56.917Z,2.37
2023-07-24T06:46:59.411Z,1.25
2023-07-24T06:50:04.036Z,1.95
2023-07-24T06:53:06.487Z,1.67
2023-07-24T06:56:09.737Z,1.88
2023-07-24T06:59:12.757Z,1.23
2023-07-24T07:02:15.477Z,0.85
2023-07-24T07:05:18.246Z,1.48
2023-07-24T07:08:20.848Z,1.33
2023-07-24T07:11:23.474Z,1.38
2023-07-24T07:14:26.374Z,1.40
2023-07-24T07:17:29.122Z,1.17
2023-07-24T07:20:34.585Z,1.65
2023-07-24T07:23:38.322Z,1.00
2023-07-24T07:26:41.677Z,1.48
2023-07-24T07:29:45.258Z,1.33
2023-07-24T07:32:50.850Z,1.42
2023-07-24T07:35:53.801Z,1.42
2023-07-24T07:38:56.455Z,1.05
2023-07-24T07:45:10.718Z,1.53
2023-07-24T07:48:13.076Z,1.85
2023-07-24T07:51:15.598Z,1.75
2023-07-24T07:54:21.450Z,1.73
2023-07-24T07:57:29.299Z,1.83
2023-07-24T08:00:32.016Z,1.53
2023-07-24T08:03:35.682Z,1.40
2023-07-24T08:06:42.080Z,1.52
2023-07-24T08:09:46.334Z,1.33
2023-07-24T08:12:51.874Z,1.95
2023-07-24T08:15:54.701Z,1.33
2023-07-24T08:18:59.082Z,1.50
2023-07-24T08:22:02.301Z,1.98
2023-07-24T08:25:05.186Z,1.42
2023-07-24T08:28:09.028Z,1.73
2023-07-24T08:31:11.778Z,1.27
2023-07-24T08:34:14.582Z,1.13
2023-07-24T08:37:21.315Z,1.75
2023-07-24T08:40:28.104Z,0.90
2023-07-24T08:43:32.098Z,1.88
2023-07-24T08:46:39.943Z,1.57
2023-07-24T08:49:44.856Z,1.15
2023-07-24T08:52:48.169Z,1.40
2023-07-24T08:55:52.780Z,1.27
2023-07-24T08:58:55.377Z,1.15
2023-07-24T09:01:57.891Z,1.87
2023-07-24T09:05:00.438Z,1.10
2023-07-24T09:08:03.840Z,1.65
2023-07-24T09:11:08.120Z,1.17
2023-07-24T09:14:21.629Z,1.10
2023-07-24T09:17:24.054Z,1.37
2023-07-24T09:20:43.478Z,1.48
2023-07-24T09:23:46.598Z,1.42
2023-07-24T09:26:58.414Z,1.23
2023-07-24T09:30:01.923Z,1.55
2023-07-24T09:33:04.825Z,1.43
2023-07-24T09:36:11.919Z,2.25
2023-07-24T09:39:14.746Z,1.35
2023-07-24T09:42:17.377Z,1.73
2023-07-24T09:45:23.354Z,0.95
2023-07-24T09:51:33.834Z,1.30
2023-07-24T09:54:47.077Z,1.50
2023-07-24T09:57:51.755Z,1.88
2023-07-24T10:00:54.818Z,1.70
2023-07-24T10:03:58.812Z,1.67
2023-07-24T10:07:01.489Z,1.38
2023-07-24T10:10:03.984Z,1.33
2023-07-24T10:13:08.447Z,1.58
2023-07-24T10:16:11.042Z,1.25
2023-07-24T10:19:16.212Z,1.60
2023-07-24T10:22:23.393Z,1.30
2023-07-24T10:25:32.297Z,2.00
2023-07-24T10:28:43.225Z,1.92
2023-07-24T10:31:54.590Z,2.00
2023-07-24T10:35:25.944Z,1.70
2023-07-24T10:38:39.407Z,1.92
2023-07-24T10:41:42.483Z,1.85
2023-07-24T10:44:44.921Z,1.58
2023-07-24T10:47:47.733Z,2.13
2023-07-24T10:50:57.934Z,1.63
2023-07-24T10:54:00.756Z,1.70
2023-07-24T10:57:03.232Z,1.60
2023-07-24T11:00:07.097Z,1.38
2023-07-24T11:03:11.722Z,1.65
2023-07-24T11:06:18.912Z,1.50
2023-07-24T11:09:24.535Z,1.67
2023-07-24T11:12:32.000Z,1.38
2023-07-24T11:15:34.916Z,1.92
2023-07-24T11:18:55.228Z,1.77
2023-07-24T11:21:59.884Z,1.30
2023-07-24T11:25:03.006Z,1.60
2023-07-24T11:28:08.220Z,1.50
2023-07-24T11:31:10.997Z,1.85
2023-07-24T11:34:14.103Z,1.58
2023-07-24T11:37:17.570Z,1.83
2023-07-24T11:40:21.171Z,2.20
2023-07-24T11:43:26.187Z,2.05
2023-07-24T11:46:33.068Z,1.58
2023-07-24T11:49:48.617Z,1.85
2023-07-24T11:52:54.219Z,1.60
2023-07-24T11:56:03.287Z,2.15
2023-07-24T11:59:16.362Z,1.73
2023-07-24T12:02:20.768Z,2.50
2023-07-24T12:05:23.643Z,1.98
2023-07-24T12:08:35.130Z,2.07
2023-07-24T12:11:46.689Z,1.65
2023-07-24T12:14:49.373Z,2.13
2023-07-24T12:17:52.580Z,2.25
2023-07-24T12:20:55.378Z,1.40
2023-07-24T12:23:58.571Z,1.70
2023-07-24T12:27:02.327Z,1.85
2023-07-24T12:30:07.203Z,2.30
2023-07-24T12:33:10.065Z,1.70
2023-07-24T12:36:14.583Z,1.70
2023-07-24T12:39:16.995Z,1.80
2023-07-24T12:42:19.603Z,1.60
2023-07-24T12:45:22.330Z,2.10
2023-07-24T12:48:34.043Z,1.55
2023-07-24T12:51:36.621Z,1.58
2023-07-24T12:54:54.640Z,1.77
2023-07-24T12:58:04.501Z,1.90
2023-07-24T13:01:08.028Z,1.85
2023-07-24T13:04:11.017Z,2.03
2023-07-24T13:07:14.210Z,1.40
2023-07-24T13:10:17.537Z,1.67
2023-07-24T13:13:20.227Z,2.90
2023-07-24T13:16:23.290Z,1.52
2023-07-24T13:19:25.766Z,2.38
2023-07-24T13:22:28.355Z,2.30
2023-07-24T13:25:31.777Z,1.87
2023-07-24T13:28:34.493Z,2.60
2023-07-24T13:31:37.342Z,2.75
2023-07-24T13:34:42.515Z,2.70
2023-07-24T13:37:45.199Z,3.00
2023-07-24T13:40:47.721Z,2.53
2023-07-24T13:43:50.281Z,2.60
2023-07-24T13:46:53.822Z,2.13
2023-07-24T13:49:56.465Z,3.15
2023-07-24T13:52:58.964Z,2.13
2023-07-24T13:56:01.746Z,2.87
2023-07-24T13:59:04.495Z,2.30
2023-07-24T14:02:07.866Z,3.47
2023-07-24T14:05:10.276Z,2.40
2023-07-24T14:08:13.462Z,3.03
2023-07-24T14:11:15.987Z,2.90
2023-07-24T14:14:19.722Z,2.70
2023-07-24T14:17:22.242Z,3.22
2023-07-24T14:20:24.934Z,3.10
2023-07-24T14:23:28.085Z,2.92
2023-07-24T14:26:31.160Z,2.70
2023-07-24T14:29:34.089Z,2.78
2023-07-24T14:32:36.726Z,3.63
2023-07-24T14:35:39.499Z,3.22
2023-07-24T14:38:42.138Z,2.75
2023-07-24T14:41:44.645Z,2.80
2023-07-24T14:44:47.134Z,2.72
2023-07-24T14:47:52.362Z,3.05
2023-07-24T14:50:55.005Z,2.58
2023-07-24T14:53:57.453Z,2.88
2023-07-24T14:57:07.674Z,3.10
2023-07-24T15:00:21.784Z,2.83
2023-07-24T15:03:24.426Z,3.17
2023-07-24T15:06:27.054Z,2.78
2023-07-24T15:09:32.220Z,2.92
2023-07-24T15:12:34.699Z,2.63
2023-07-24T15:15:40.278Z,2.65
2023-07-24T15:18:43.636Z,3.10
2023-07-24T15:21:46.455Z,2.03
2023-07-24T15:24:48.914Z,2.00
2023-07-24T15:27:51.561Z,1.60
2023-07-24T15:30:54.121Z,1.33
2023-07-24T15:33:56.632Z,1.60
2023-07-24T15:36:59.283Z,1.83
2023-07-24T15:40:02.248Z,1.52
2023-07-24T15:43:07.471Z,1.80
2023-07-24T15:46:10.182Z,1.27
2023-07-24T15:49:12.895Z,1.67
2023-07-24T15:52:16.724Z,1.67
2023-07-24T15:55:19.587Z,2.38
2023-07-24T15:58:22.065Z,2.40
2023-07-24T16:01:24.992Z,1.88
2023-07-24T16:04:28.706Z,2.15
2023-07-24T16:07:37.032Z,2.15
2023-07-24T16:10:39.739Z,2.28
2023-07-24T16:13:43.523Z,1.67
2023-07-24T16:16:46.305Z,1.73
2023-07-24T16:19:48.909Z,1.20
2023-07-24T16:22:51.567Z,1.20
2023-07-24T16:25:54.366Z,1.42
2023-07-24T16:28:58.391Z,1.33
2023-07-24T16:32:00.844Z,1.52
2023-07-24T16:35:03.457Z,1.10
2023-07-24T16:38:09.443Z,1.20
2023-07-24T16:41:13.501Z,1.50
2023-07-24T16:44:33.156Z,1.33
2023-07-24T16:47:39.681Z,1.77
2023-07-24T16:50:42.318Z,1.52
2023-07-24T16:53:44.975Z,1.08
2023-07-24T16:56:47.702Z,1.35
2023-07-24T16:59:51.796Z,1.60
2023-07-24T17:02:57.471Z,1.33
2023-07-24T17:06:00.162Z,0.98
2023-07-24T17:09:02.661Z,1.50
2023-07-24T17:12:06.075Z,1.77
2023-07-24T17:15:09.268Z,1.10
2023-07-24T17:18:14.924Z,1.65
2023-07-24T17:21:17.621Z,1.30
2023-07-24T17:24:20.636Z,1.13
2023-07-24T17:27:23.439Z,1.17
2023-07-24T17:30:25.818Z,1.03
2023-07-24T17:33:28.253Z,1.42
2023-07-24T17:36:31.010Z,1.20
2023-07-24T17:39:33.672Z,1.75
2023-07-24T17:42:39.066Z,1.60
2023-07-24T17:45:42.905Z,1.13
2023-07-24T17:48:46.196Z,1.27
2023-07-24T17:51:48.707Z,1.30
2023-07-24T17:54:51.113Z,1.55
2023-07-24T17:57:54.955Z,1.42
2023-07-24T18:00:59.929Z,1.10
2023-07-24T18:04:02.404Z,1.38
2023-07-24T18:07:05.128Z,1.17
2023-07-24T18:10:08.386Z,0.90
2023-07-24T18:13:11.251Z,1.20
2023-07-24T18:16:14.012Z,1.00
2023-07-24T18:19:16.682Z,1.55
2023-07-24T18:22:22.029Z,2.08
2023-07-24T18:25:24.697Z,0.88
2023-07-24T18:28:28.321Z,1.10
2023-07-24T18:31:34.109Z,0.90
2023-07-24T18:34:37.448Z,1.38
2023-07-24T18:37:40.317Z,0.90
2023-07-24T18:40:42.754Z,1.15
2023-07-24T18:43:48.507Z,1.45
2023-07-24T18:46:52.817Z,1.13
2023-07-24T18:49:56.197Z,1.13
2023-07-24T18:52:58.660Z,1.45
2023-07-24T18:56:01.950Z,1.40
2023-07-24T18:59:05.964Z,1.92
2023-07-24T19:02:08.412Z,1.40
2023-07-24T19:05:11.185Z,1.00
2023-07-24T19:08:14.250Z,1.25
2023-07-24T19:11:20.657Z,1.20
2023-07-24T19:14:23.356Z,1.52
2023-07-24T19:17:25.806Z,1.00
2023-07-24T19:20:30.928Z,1.42
2023-07-24T19:23:33.628Z,0.82
2023-07-24T19:26:36.896Z,1.08
2023-07-24T19:29:39.758Z,1.27
2023-07-24T19:32:45.233Z,0.97
2023-07-24T19:35:48.760Z,0.93
2023-07-24T19:38:51.423Z,1.40
2023-07-24T19:41:56.299Z,1.42
2023-07-24T19:45:00.338Z,0.90
2023-07-24T19:48:05.788Z,0.60
2023-07-24T19:51:08.360Z,1.45
2023-07-24T19:54:11.071Z,1.17
2023-07-24T19:57:13.650Z,1.52
2023-07-24T20:00:16.339Z,1.83
2023-07-24T20:03:19.912Z,0.70
2023-07-24T20:06:22.591Z,0.98
2023-07-24T20:09:24.954Z,0.90
2023-07-24T20:12:27.367Z,1.13
2023-07-24T20:15:29.756Z,1.23
2023-07-24T20:18:32.362Z,1.67
2023-07-24T20:21:34.913Z,1.35
2023-07-24T20:24:37.644Z,1.05
2023-07-24T20:27:40.415Z,1.15
2023-07-24T20:30:46.676Z,1.05
2023-07-24T20:33:49.106Z,1.20
2023-07-24T20:36:52.043Z,0.90
2023-07-24T20:39:56.181Z,0.80
2023-07-24T20:42:58.767Z,0.70
2023-07-24T20:46:14.506Z,0.65
2023-07-24T20:49:17.032Z,0.87
2023-07-24T20:52:19.719Z,1.05
2023-07-24T20:55:22.291Z,1.00
2023-07-24T20:58:24.748Z,1.20
2023-07-24T21:01:27.314Z,1.52
2023-07-24T21:04:30.343Z,1.27
2023-07-24T21:07:33.279Z,1.05
2023-07-24T21:10:38.833Z,1.27
2023-07-24T21:13:44.593Z,1.05
2023-07-24T21:16:47.025Z,1.38
2023-07-24T21:19:54.004Z,1.57
2023-07-24T21:22:59.779Z,1.95
2023-07-24T21:26:02.238Z,1.02
2023-07-24T21:29:05.297Z,0.70
2023-07-24T21:32:11.813Z,1.75
2023-07-24T21:35:14.711Z,0.93
2023-07-24T21:38:23.127Z,1.67
2023-07-24T21:41:27.274Z,0.98
2023-07-24T21:44:31.307Z,1.60
2023-07-24T21:47:33.696Z,0.90
2023-07-24T21:50:37.165Z,1.43
2023-07-24T21:53:43.513Z,1.60
2023-07-24T21:56:46.446Z,1.10
2023-07-24T21:59:48.961Z,1.30
2023-07-24T22:02:52.410Z,1.27
2023-07-24T22:05:55.052Z,1.37
2023-07-24T22:08:57.751Z,1.02
2023-07-24T22:12:00.219Z,1.45
2023-07-24T22:15:03.372Z,0.80
2023-07-24T22:18:06.228Z,1.30
2023-07-24T22:21:08.910Z,2.27
2023-07-24T22:24:20.607Z,1.42
2023-07-24T22:27:23.069Z,2.40
2023-07-24T22:30:25.860Z,1.23
2023-07-24T22:33:28.508Z,1.23
2023-07-24T22:36:31.651Z,1.43
2023-07-24T22:39:35.856Z,1.27
2023-07-24T22:42:38.431Z,1.65
2023-07-24T22:45:41.177Z,1.42
2023-07-24T22:48:43.827Z,1.17
2023-07-24T22:51:46.257Z,1.63
2023-07-24T22:54:49.174Z,1.27
2023-07-24T22:57:51.712Z,1.00
2023-07-24T23:00:54.519Z,1.67
2023-07-24T23:03:57.612Z,1.45
2023-07-24T23:07:00.927Z,1.47
2023-07-24T23:10:03.828Z,1.58
2023-07-24T23:13:07.068Z,1.02
2023-07-24T23:16:09.992Z,1.30
2023-07-24T23:19:12.482Z,1.27
2023-07-24T23:22:14.945Z,0.97
2023-07-24T23:25:17.487Z,1.23
2023-07-24T23:28:20.641Z,2.42
2023-07-24T23:31:23.281Z,0.82
2023-07-24T23:34:25.734Z,1.20
2023-07-24T23:37:28.302Z,0.80
2023-07-24T23:40:31.258Z,0.90
2023-07-24T23:43:34.815Z,1.23
2023-07-24T23:46:40.052Z,1.58
2023-07-24T23:49:42.804Z,0.95
2023-07-24T23:52:45.653Z,1.63
2023-07-24T23:55:48.266Z,1.27
2023-07-24T23:58:52.074Z,0.98
